DAL179 PANC-PADK
Flight info
| Callsign | DAL179 |
|---|---|
| Flight time | 2h 54m |
| Altitude | 36000 |
| Route | TURNA8 NAPTO ENA J115 DUT SIYNY |
| Aircraft | B738/M-SDE2E3FGHIRWXY/LB1 |
Departure
| Time | 2026-04-26 14:00 |
|---|---|
| Airport | Ted Stevens Anchorage International Airport (PANC) |
Arrival
| Time | 2026-04-26 16:54 |
|---|---|
| Airport | Adak Airport (PADK) |
| Time | Latitude | Longitude | Altitude | Speed | Heading |
|---|---|---|---|---|---|
| 2026-04-26 13:37 | 61.17315 | -149.98418 | 110 ft | 0 kts | 149° |
| 2026-04-26 13:49 | 61.17315 | -149.98419 | 110 ft | 0 kts | 149° |
| 2026-04-26 13:51 | 61.17330 | -149.98437 | 109 ft | 4 kts | 149° |
| 2026-04-26 13:51 | 61.17352 | -149.98465 | 109 ft | 4 kts | 149° |
| 2026-04-26 13:52 | 61.17374 | -149.98496 | 108 ft | 4 kts | 142° |
| 2026-04-26 13:52 | 61.17396 | -149.98528 | 108 ft | 4 kts | 150° |
| 2026-04-26 13:52 | 61.17420 | -149.98550 | 107 ft | 4 kts | 172° |
| 2026-04-26 13:52 | 61.17440 | -149.98548 | 106 ft | 1 kts | 200° |
| 2026-04-26 13:53 | 61.17444 | -149.98546 | 106 ft | 0 kts | 200° |
| 2026-04-26 13:55 | 61.17425 | -149.98560 | 108 ft | 6 kts | 200° |
| 2026-04-26 13:56 | 61.17372 | -149.98619 | 109 ft | 9 kts | 212° |
| 2026-04-26 13:56 | 61.17319 | -149.98693 | 108 ft | 9 kts | 214° |
| 2026-04-26 13:56 | 61.17285 | -149.98740 | 110 ft | 9 kts | 213° |
| 2026-04-26 13:56 | 61.17234 | -149.98812 | 110 ft | 9 kts | 218° |
| 2026-04-26 13:57 | 61.17192 | -149.98903 | 111 ft | 9 kts | 230° |
| 2026-04-26 13:57 | 61.17154 | -149.98998 | 122 ft | 8 kts | 230° |
| 2026-04-26 13:57 | 61.17128 | -149.99102 | 116 ft | 8 kts | 258° |
| 2026-04-26 13:57 | 61.17124 | -149.99222 | 118 ft | 9 kts | 270° |
| 2026-04-26 13:58 | 61.17125 | -149.99361 | 120 ft | 10 kts | 270° |
| 2026-04-26 13:58 | 61.17141 | -149.99500 | 116 ft | 11 kts | 315° |
| 2026-04-26 13:58 | 61.17221 | -149.99563 | 120 ft | 14 kts | 345° |
| 2026-04-26 13:58 | 61.17329 | -149.99622 | 119 ft | 18 kts | 344° |
| 2026-04-26 13:59 | 61.17488 | -149.99711 | 117 ft | 29 kts | 345° |
| 2026-04-26 13:59 | 61.17724 | -149.99891 | 113 ft | 57 kts | 323° |
| 2026-04-26 13:59 | 61.18271 | -150.00517 | 125 ft | 123 kts | 347° |
| 2026-04-26 14:00 | 61.21493 | -150.01281 | 1687 ft | 169 kts | 42° |
| 2026-04-26 14:00 | 61.22029 | -149.99115 | 2192 ft | 186 kts | 90° |
| 2026-04-26 14:00 | 61.21802 | -149.97396 | 2548 ft | 192 kts | 124° |
| 2026-04-26 14:01 | 61.20236 | -149.95795 | 3407 ft | 200 kts | 180° |
| 2026-04-26 14:01 | 61.18841 | -149.95835 | 4092 ft | 201 kts | 178° |
| 2026-04-26 14:01 | 61.17468 | -149.95777 | 4831 ft | 200 kts | 180° |
| 2026-04-26 14:01 | 61.16117 | -149.96547 | 5359 ft | 212 kts | 206° |
| 2026-04-26 14:02 | 61.14748 | -149.98070 | 5644 ft | 232 kts | 206° |
| 2026-04-26 14:02 | 61.13257 | -149.99710 | 5999 ft | 255 kts | 206° |
| 2026-04-26 14:02 | 61.11661 | -150.01458 | 6758 ft | 261 kts | 206° |
| 2026-04-26 14:02 | 61.10053 | -150.03212 | 7602 ft | 263 kts | 206° |
| 2026-04-26 14:03 | 61.08416 | -150.04987 | 8413 ft | 268 kts | 205° |
| 2026-04-26 14:03 | 61.06753 | -150.06782 | 9230 ft | 271 kts | 205° |
| 2026-04-26 14:03 | 61.05067 | -150.08596 | 10046 ft | 275 kts | 205° |
| 2026-04-26 14:03 | 61.03332 | -150.10454 | 10483 ft | 292 kts | 205° |
| 2026-04-26 14:04 | 61.01446 | -150.12467 | 10676 ft | 317 kts | 205° |
| 2026-04-26 14:04 | 60.99422 | -150.14625 | 10901 ft | 337 kts | 206° |
| 2026-04-26 14:04 | 60.97302 | -150.16887 | 11443 ft | 346 kts | 206° |
| 2026-04-26 14:04 | 60.95153 | -150.19178 | 12151 ft | 350 kts | 206° |
| 2026-04-26 14:05 | 60.92976 | -150.21494 | 12884 ft | 354 kts | 207° |
| 2026-04-26 14:05 | 60.90773 | -150.23833 | 13594 ft | 359 kts | 207° |
| 2026-04-26 14:05 | 60.88549 | -150.26218 | 14241 ft | 363 kts | 210° |
| 2026-04-26 14:05 | 60.86519 | -150.29313 | 14868 ft | 365 kts | 226° |
| 2026-04-26 14:06 | 60.84955 | -150.33389 | 15583 ft | 364 kts | 240° |
| 2026-04-26 14:06 | 60.83759 | -150.37902 | 16340 ft | 363 kts | 244° |
| 2026-04-26 14:06 | 60.82582 | -150.42393 | 17142 ft | 362 kts | 244° |
| 2026-04-26 14:06 | 60.81376 | -150.46942 | 17774 ft | 365 kts | 245° |
| 2026-04-26 14:07 | 60.80151 | -150.51524 | 18432 ft | 367 kts | 245° |
| 2026-04-26 14:07 | 60.78915 | -150.56114 | 18999 ft | 368 kts | 244° |
| 2026-04-26 14:07 | 60.77672 | -150.60703 | 19576 ft | 370 kts | 244° |
| 2026-04-26 14:07 | 60.76420 | -150.65315 | 20105 ft | 373 kts | 244° |
| 2026-04-26 14:08 | 60.75154 | -150.69961 | 20625 ft | 375 kts | 244° |
| 2026-04-26 14:08 | 60.73877 | -150.74639 | 21144 ft | 378 kts | 243° |
| 2026-04-26 14:08 | 60.72590 | -150.79343 | 21660 ft | 380 kts | 243° |
| 2026-04-26 14:08 | 60.71293 | -150.84074 | 22173 ft | 383 kts | 243° |
| 2026-04-26 14:09 | 60.69986 | -150.88833 | 22666 ft | 385 kts | 243° |
| 2026-04-26 14:09 | 60.68669 | -150.93616 | 23159 ft | 388 kts | 243° |
| 2026-04-26 14:09 | 60.67341 | -150.98431 | 23619 ft | 391 kts | 243° |
| 2026-04-26 14:09 | 60.66002 | -151.03277 | 24013 ft | 393 kts | 243° |
| 2026-04-26 14:10 | 60.64655 | -151.08144 | 24422 ft | 394 kts | 243° |
| 2026-04-26 14:10 | 60.63307 | -151.13006 | 24830 ft | 395 kts | 243° |
| 2026-04-26 14:10 | 60.61947 | -151.17894 | 25225 ft | 397 kts | 243° |
| 2026-04-26 14:10 | 60.60562 | -151.22779 | 25557 ft | 400 kts | 242° |
| 2026-04-26 14:11 | 60.57649 | -151.32418 | 26268 ft | 404 kts | 240° |
| 2026-04-26 14:11 | 60.56160 | -151.37260 | 26655 ft | 405 kts | 240° |
| 2026-04-26 14:11 | 60.54664 | -151.42125 | 27019 ft | 406 kts | 241° |
| 2026-04-26 14:12 | 60.53167 | -151.47005 | 27366 ft | 408 kts | 241° |
| 2026-04-26 14:12 | 60.51664 | -151.51910 | 27708 ft | 409 kts | 241° |
| 2026-04-26 14:12 | 60.50157 | -151.56828 | 28041 ft | 411 kts | 241° |
| 2026-04-26 14:12 | 60.48645 | -151.61760 | 28372 ft | 412 kts | 241° |
| 2026-04-26 14:13 | 60.45601 | -151.71661 | 29017 ft | 415 kts | 241° |
| 2026-04-26 14:13 | 60.44073 | -151.76614 | 29445 ft | 414 kts | 242° |
| 2026-04-26 14:13 | 60.42552 | -151.81532 | 29914 ft | 411 kts | 241° |
| 2026-04-26 14:14 | 60.41043 | -151.86403 | 30411 ft | 407 kts | 241° |
| 2026-04-26 14:14 | 60.39544 | -151.91228 | 30859 ft | 403 kts | 241° |
| 2026-04-26 14:14 | 60.38056 | -151.96013 | 31232 ft | 402 kts | 241° |
| 2026-04-26 14:14 | 60.36567 | -152.00790 | 31576 ft | 401 kts | 241° |
| 2026-04-26 14:15 | 60.35082 | -152.05548 | 31934 ft | 400 kts | 241° |
| 2026-04-26 14:15 | 60.33600 | -152.10286 | 32349 ft | 397 kts | 241° |
| 2026-04-26 14:15 | 60.32129 | -152.14976 | 32772 ft | 395 kts | 241° |
| 2026-04-26 14:15 | 60.30662 | -152.19643 | 33140 ft | 393 kts | 241° |
| 2026-04-26 14:16 | 60.29200 | -152.24289 | 33471 ft | 392 kts | 241° |
| 2026-04-26 14:16 | 60.27737 | -152.28931 | 33793 ft | 392 kts | 241° |
| 2026-04-26 14:16 | 60.26279 | -152.33549 | 34130 ft | 390 kts | 242° |
| 2026-04-26 14:16 | 60.24822 | -152.38152 | 34393 ft | 390 kts | 241° |
| 2026-04-26 14:17 | 60.23363 | -152.42754 | 34575 ft | 390 kts | 241° |
| 2026-04-26 14:17 | 60.21905 | -152.47343 | 34871 ft | 388 kts | 241° |
| 2026-04-26 14:17 | 60.20466 | -152.51942 | 35061 ft | 389 kts | 241° |
| 2026-04-26 14:17 | 60.19030 | -152.56574 | 35232 ft | 391 kts | 241° |
| 2026-04-26 14:18 | 60.17593 | -152.61216 | 35421 ft | 392 kts | 241° |
| 2026-04-26 14:18 | 60.16152 | -152.65864 | 35643 ft | 392 kts | 241° |
| 2026-04-26 14:18 | 60.14709 | -152.70505 | 35833 ft | 393 kts | 241° |
| 2026-04-26 14:18 | 60.13257 | -152.75160 | 35994 ft | 394 kts | 241° |
| 2026-04-26 14:19 | 60.11816 | -152.79773 | 36046 ft | 397 kts | 241° |
| 2026-04-26 14:19 | 60.08869 | -152.89163 | 36051 ft | 398 kts | 241° |
| 2026-04-26 14:20 | 60.05927 | -152.98488 | 36046 ft | 393 kts | 241° |
| 2026-04-26 14:20 | 60.03002 | -153.07727 | 36047 ft | 388 kts | 240° |
| 2026-04-26 14:21 | 60.00109 | -153.16834 | 36058 ft | 388 kts | 240° |
| 2026-04-26 14:21 | 59.97230 | -153.25861 | 36039 ft | 388 kts | 240° |
| 2026-04-26 14:22 | 59.94325 | -153.34933 | 36042 ft | 388 kts | 239° |
| 2026-04-26 14:22 | 59.91413 | -153.43993 | 36043 ft | 389 kts | 239° |
| 2026-04-26 14:23 | 59.88483 | -153.53073 | 36030 ft | 390 kts | 239° |
| 2026-04-26 14:23 | 59.85540 | -153.62159 | 36001 ft | 391 kts | 239° |
| 2026-04-26 14:24 | 59.82586 | -153.71240 | 36018 ft | 392 kts | 238° |
| 2026-04-26 14:24 | 59.79617 | -153.80333 | 36023 ft | 392 kts | 238° |
| 2026-04-26 14:25 | 59.76636 | -153.89427 | 36015 ft | 393 kts | 238° |
| 2026-04-26 14:25 | 59.73646 | -153.98513 | 35997 ft | 394 kts | 238° |
| 2026-04-26 14:26 | 59.70649 | -154.07587 | 35996 ft | 393 kts | 238° |
| 2026-04-26 14:26 | 59.67648 | -154.16637 | 35994 ft | 393 kts | 238° |
| 2026-04-26 14:27 | 59.64647 | -154.25654 | 35993 ft | 392 kts | 238° |
| 2026-04-26 14:27 | 59.61642 | -154.34646 | 36000 ft | 392 kts | 238° |
| 2026-04-26 14:28 | 59.58656 | -154.43554 | 36011 ft | 391 kts | 238° |
| 2026-04-26 14:28 | 59.55640 | -154.52514 | 35991 ft | 392 kts | 237° |
| 2026-04-26 14:29 | 59.52569 | -154.61409 | 35979 ft | 392 kts | 236° |
| 2026-04-26 14:29 | 59.49411 | -154.70169 | 35973 ft | 392 kts | 236° |
| 2026-04-26 14:30 | 59.46248 | -154.78903 | 35958 ft | 392 kts | 235° |
| 2026-04-26 14:30 | 59.43089 | -154.87629 | 35972 ft | 392 kts | 235° |
| 2026-04-26 14:31 | 59.39929 | -154.96345 | 35967 ft | 392 kts | 235° |
| 2026-04-26 14:31 | 59.36763 | -155.05052 | 35960 ft | 392 kts | 235° |
| 2026-04-26 14:32 | 59.33611 | -155.13689 | 35955 ft | 392 kts | 235° |
| 2026-04-26 14:32 | 59.30428 | -155.22378 | 35951 ft | 393 kts | 234° |
| 2026-04-26 14:33 | 59.27242 | -155.31045 | 35932 ft | 393 kts | 234° |
| 2026-04-26 14:33 | 59.24043 | -155.39714 | 35939 ft | 393 kts | 234° |
| 2026-04-26 14:34 | 59.20840 | -155.48363 | 35938 ft | 393 kts | 234° |
| 2026-04-26 14:34 | 59.17628 | -155.57003 | 35933 ft | 394 kts | 234° |
| 2026-04-26 14:35 | 59.14401 | -155.65654 | 35921 ft | 395 kts | 233° |
| 2026-04-26 14:35 | 59.11165 | -155.74295 | 35916 ft | 396 kts | 233° |
| 2026-04-26 14:36 | 59.07916 | -155.82942 | 35917 ft | 396 kts | 233° |
| 2026-04-26 14:36 | 59.04655 | -155.91586 | 35917 ft | 396 kts | 232° |
| 2026-04-26 14:37 | 59.01410 | -156.00158 | 35917 ft | 397 kts | 232° |
| 2026-04-26 14:37 | 58.98138 | -156.08771 | 35897 ft | 396 kts | 232° |
| 2026-04-26 14:38 | 58.94865 | -156.17354 | 35898 ft | 396 kts | 232° |
| 2026-04-26 14:38 | 58.91589 | -156.25912 | 35900 ft | 395 kts | 232° |
| 2026-04-26 14:39 | 58.88314 | -156.34440 | 35892 ft | 395 kts | 232° |
| 2026-04-26 14:39 | 58.85037 | -156.42943 | 35878 ft | 394 kts | 232° |
| 2026-04-26 14:40 | 58.81756 | -156.51423 | 35876 ft | 394 kts | 232° |
| 2026-04-26 14:40 | 58.78479 | -156.59867 | 35845 ft | 393 kts | 232° |
| 2026-04-26 14:41 | 58.75199 | -156.68293 | 35844 ft | 393 kts | 231° |
| 2026-04-26 14:41 | 58.71864 | -156.76617 | 35839 ft | 393 kts | 226° |
| 2026-04-26 14:42 | 58.68088 | -156.84204 | 35845 ft | 393 kts | 224° |
| 2026-04-26 14:42 | 58.64256 | -156.91690 | 35843 ft | 393 kts | 224° |
| 2026-04-26 14:43 | 58.60428 | -156.99203 | 35846 ft | 394 kts | 224° |
| 2026-04-26 14:43 | 58.56598 | -157.06745 | 35844 ft | 395 kts | 224° |
| 2026-04-26 14:44 | 58.52760 | -157.14296 | 35844 ft | 396 kts | 224° |
| 2026-04-26 14:44 | 58.48915 | -157.21840 | 35844 ft | 396 kts | 224° |
| 2026-04-26 14:45 | 58.45084 | -157.29331 | 35834 ft | 397 kts | 224° |
| 2026-04-26 14:45 | 58.41218 | -157.36864 | 35833 ft | 397 kts | 224° |
| 2026-04-26 14:46 | 58.37346 | -157.44385 | 35815 ft | 397 kts | 224° |
| 2026-04-26 14:46 | 58.33473 | -157.51881 | 35812 ft | 397 kts | 223° |
| 2026-04-26 14:47 | 58.30228 | -157.58144 | 35794 ft | 396 kts | 223° |
| 2026-04-26 14:47 | 58.26355 | -157.65595 | 35794 ft | 396 kts | 223° |
| 2026-04-26 14:48 | 58.22487 | -157.73013 | 35794 ft | 395 kts | 223° |
| 2026-04-26 14:48 | 58.18643 | -157.80360 | 35755 ft | 395 kts | 223° |
| 2026-04-26 14:49 | 58.14772 | -157.87735 | 35749 ft | 394 kts | 223° |
| 2026-04-26 14:49 | 58.10910 | -157.95070 | 35728 ft | 393 kts | 223° |
| 2026-04-26 14:50 | 58.07022 | -158.02429 | 35757 ft | 393 kts | 222° |
| 2026-04-26 14:50 | 58.03177 | -158.09686 | 35717 ft | 393 kts | 222° |
| 2026-04-26 14:51 | 57.99302 | -158.16979 | 35725 ft | 394 kts | 222° |
| 2026-04-26 14:51 | 57.95419 | -158.24251 | 35702 ft | 394 kts | 221° |
| 2026-04-26 14:52 | 57.91523 | -158.31507 | 35686 ft | 394 kts | 221° |
| 2026-04-26 14:52 | 57.87620 | -158.38752 | 35684 ft | 394 kts | 221° |
| 2026-04-26 14:53 | 57.83713 | -158.45986 | 35671 ft | 394 kts | 221° |
| 2026-04-26 14:53 | 57.79803 | -158.53205 | 35670 ft | 395 kts | 221° |
| 2026-04-26 14:54 | 57.75884 | -158.60417 | 35673 ft | 395 kts | 221° |
| 2026-04-26 14:54 | 57.71962 | -158.67614 | 35660 ft | 395 kts | 221° |
| 2026-04-26 14:55 | 57.68040 | -158.74786 | 35635 ft | 394 kts | 221° |
| 2026-04-26 14:55 | 57.64115 | -158.81939 | 35633 ft | 394 kts | 221° |
| 2026-04-26 14:56 | 57.60192 | -158.89069 | 35633 ft | 393 kts | 221° |
| 2026-04-26 14:56 | 57.56269 | -158.96174 | 35620 ft | 393 kts | 221° |
| 2026-04-26 14:57 | 57.52349 | -159.03252 | 35620 ft | 393 kts | 221° |
| 2026-04-26 14:57 | 57.48424 | -159.10317 | 35606 ft | 392 kts | 221° |
| 2026-04-26 14:58 | 57.44500 | -159.17357 | 35606 ft | 392 kts | 221° |
| 2026-04-26 14:58 | 57.40577 | -159.24374 | 35645 ft | 392 kts | 220° |
| 2026-04-26 14:59 | 57.36636 | -159.31400 | 35602 ft | 393 kts | 220° |
| 2026-04-26 14:59 | 57.32684 | -159.38425 | 35599 ft | 394 kts | 220° |
| 2026-04-26 15:00 | 57.28721 | -159.45446 | 35588 ft | 395 kts | 220° |
| 2026-04-26 15:00 | 57.24753 | -159.52455 | 35585 ft | 395 kts | 220° |
| 2026-04-26 15:01 | 57.20803 | -159.59411 | 35576 ft | 395 kts | 220° |
| 2026-04-26 15:01 | 57.16819 | -159.66404 | 35580 ft | 395 kts | 220° |
| 2026-04-26 15:02 | 57.12832 | -159.73381 | 35562 ft | 396 kts | 220° |
| 2026-04-26 15:02 | 57.08838 | -159.80347 | 35560 ft | 396 kts | 219° |
| 2026-04-26 15:03 | 57.04842 | -159.87297 | 35547 ft | 395 kts | 219° |
| 2026-04-26 15:03 | 57.00847 | -159.94223 | 35546 ft | 395 kts | 219° |
| 2026-04-26 15:04 | 56.96850 | -160.01130 | 35539 ft | 394 kts | 219° |
| 2026-04-26 15:04 | 56.92858 | -160.08010 | 35541 ft | 394 kts | 219° |
| 2026-04-26 15:05 | 56.88866 | -160.14867 | 35550 ft | 393 kts | 219° |
| 2026-04-26 15:05 | 56.84874 | -160.21706 | 35529 ft | 393 kts | 219° |
| 2026-04-26 15:06 | 56.80880 | -160.28527 | 35525 ft | 393 kts | 219° |
| 2026-04-26 15:06 | 56.76885 | -160.35331 | 35518 ft | 393 kts | 219° |
| 2026-04-26 15:07 | 56.70887 | -160.45528 | 35516 ft | 394 kts | 219° |
| 2026-04-26 15:07 | 56.66874 | -160.52328 | 35539 ft | 395 kts | 219° |
| 2026-04-26 15:08 | 56.62843 | -160.59137 | 35521 ft | 396 kts | 218° |
| 2026-04-26 15:08 | 56.58828 | -160.65900 | 35495 ft | 397 kts | 218° |
| 2026-04-26 15:09 | 56.54778 | -160.72700 | 35497 ft | 397 kts | 218° |
| 2026-04-26 15:09 | 56.50723 | -160.79489 | 35489 ft | 397 kts | 218° |
| 2026-04-26 15:10 | 56.47322 | -160.85166 | 35491 ft | 397 kts | 218° |
| 2026-04-26 15:10 | 56.42599 | -160.93026 | 35493 ft | 397 kts | 218° |
| 2026-04-26 15:11 | 56.38532 | -160.99773 | 35486 ft | 397 kts | 218° |
| 2026-04-26 15:11 | 56.34467 | -161.06495 | 35482 ft | 396 kts | 218° |
| 2026-04-26 15:12 | 56.30411 | -161.13183 | 35468 ft | 395 kts | 218° |
| 2026-04-26 15:12 | 56.26355 | -161.19849 | 35471 ft | 394 kts | 218° |
| 2026-04-26 15:13 | 56.22305 | -161.26487 | 35479 ft | 393 kts | 218° |
| 2026-04-26 15:13 | 56.18259 | -161.33098 | 35474 ft | 393 kts | 218° |
| 2026-04-26 15:14 | 56.14219 | -161.39679 | 35468 ft | 392 kts | 218° |
| 2026-04-26 15:14 | 56.10180 | -161.46240 | 35468 ft | 391 kts | 218° |
| 2026-04-26 15:15 | 56.06143 | -161.52778 | 35507 ft | 392 kts | 217° |
| 2026-04-26 15:15 | 56.02090 | -161.59323 | 35475 ft | 393 kts | 217° |
| 2026-04-26 15:16 | 55.98026 | -161.65866 | 35471 ft | 394 kts | 217° |
| 2026-04-26 15:16 | 55.93945 | -161.72417 | 35464 ft | 395 kts | 217° |
| 2026-04-26 15:17 | 55.90544 | -161.77863 | 35460 ft | 396 kts | 217° |
| 2026-04-26 15:17 | 55.85777 | -161.85474 | 35461 ft | 396 kts | 217° |
| 2026-04-26 15:18 | 55.81662 | -161.92024 | 35462 ft | 397 kts | 217° |
| 2026-04-26 15:18 | 55.77537 | -161.98571 | 35465 ft | 398 kts | 217° |
| 2026-04-26 15:19 | 55.73399 | -162.05099 | 35453 ft | 398 kts | 217° |
| 2026-04-26 15:19 | 55.69257 | -162.11601 | 35454 ft | 397 kts | 217° |
| 2026-04-26 15:20 | 55.65115 | -162.18086 | 35452 ft | 397 kts | 217° |
| 2026-04-26 15:20 | 55.60971 | -162.24560 | 35449 ft | 397 kts | 217° |
| 2026-04-26 15:21 | 55.56831 | -162.31009 | 35451 ft | 397 kts | 217° |
| 2026-04-26 15:21 | 55.52693 | -162.37439 | 35430 ft | 396 kts | 217° |
| 2026-04-26 15:22 | 55.48557 | -162.43843 | 35423 ft | 395 kts | 217° |
| 2026-04-26 15:22 | 55.44429 | -162.50220 | 35426 ft | 394 kts | 217° |
| 2026-04-26 15:23 | 55.40297 | -162.56582 | 35423 ft | 394 kts | 217° |
| 2026-04-26 15:23 | 55.36172 | -162.62919 | 35423 ft | 393 kts | 217° |
| 2026-04-26 15:24 | 55.32075 | -162.69194 | 35423 ft | 393 kts | 217° |
| 2026-04-26 15:24 | 55.27989 | -162.75568 | 35418 ft | 395 kts | 221° |
| 2026-04-26 15:25 | 55.25107 | -162.81947 | 35418 ft | 404 kts | 233° |
| 2026-04-26 15:25 | 55.21818 | -162.91841 | 35421 ft | 405 kts | 233° |
| 2026-04-26 15:26 | 55.18980 | -163.00349 | 35418 ft | 405 kts | 233° |
| 2026-04-26 15:26 | 55.16126 | -163.08831 | 35416 ft | 404 kts | 233° |
| 2026-04-26 15:27 | 55.13262 | -163.17293 | 35425 ft | 404 kts | 233° |
| 2026-04-26 15:27 | 55.10392 | -163.25734 | 35414 ft | 404 kts | 233° |
| 2026-04-26 15:28 | 55.07518 | -163.34160 | 35444 ft | 404 kts | 233° |
| 2026-04-26 15:28 | 55.04630 | -163.42592 | 35416 ft | 405 kts | 233° |
| 2026-04-26 15:29 | 55.01731 | -163.51032 | 35406 ft | 406 kts | 232° |
| 2026-04-26 15:30 | 54.95927 | -163.67845 | 35402 ft | 407 kts | 232° |
| 2026-04-26 15:30 | 54.93000 | -163.76278 | 35385 ft | 407 kts | 233° |
| 2026-04-26 15:31 | 54.88595 | -163.88916 | 35406 ft | 408 kts | 233° |
| 2026-04-26 15:32 | 54.85145 | -163.98769 | 35389 ft | 409 kts | 233° |
| 2026-04-26 15:32 | 54.81202 | -164.09981 | 35460 ft | 409 kts | 232° |
| 2026-04-26 15:33 | 54.78218 | -164.18430 | 35408 ft | 412 kts | 232° |
| 2026-04-26 15:33 | 54.75213 | -164.26909 | 35400 ft | 414 kts | 233° |
| 2026-04-26 15:34 | 54.72707 | -164.33963 | 35388 ft | 414 kts | 233° |
| 2026-04-26 15:34 | 54.69682 | -164.42448 | 35382 ft | 414 kts | 233° |
| 2026-04-26 15:35 | 54.66657 | -164.50907 | 35383 ft | 413 kts | 233° |
| 2026-04-26 15:35 | 54.63630 | -164.59339 | 35359 ft | 413 kts | 233° |
| 2026-04-26 15:36 | 54.60607 | -164.67733 | 35359 ft | 411 kts | 233° |
| 2026-04-26 15:36 | 54.57594 | -164.76071 | 35365 ft | 409 kts | 233° |
| 2026-04-26 15:37 | 54.54578 | -164.84384 | 35360 ft | 409 kts | 233° |
| 2026-04-26 15:37 | 54.51554 | -164.92692 | 35357 ft | 410 kts | 233° |
| 2026-04-26 15:38 | 54.48517 | -165.01008 | 35351 ft | 411 kts | 233° |
| 2026-04-26 15:38 | 54.45472 | -165.09321 | 35335 ft | 411 kts | 233° |
| 2026-04-26 15:39 | 54.42419 | -165.17626 | 35333 ft | 412 kts | 232° |
| 2026-04-26 15:39 | 54.39873 | -165.24531 | 35332 ft | 412 kts | 232° |
| 2026-04-26 15:40 | 54.36303 | -165.34183 | 35351 ft | 413 kts | 232° |
| 2026-04-26 15:40 | 54.33220 | -165.42485 | 35318 ft | 413 kts | 232° |
| 2026-04-26 15:41 | 54.30131 | -165.50778 | 35352 ft | 413 kts | 232° |
| 2026-04-26 15:41 | 54.27037 | -165.59056 | 35324 ft | 413 kts | 232° |
| 2026-04-26 15:42 | 54.23935 | -165.67327 | 35299 ft | 413 kts | 232° |
| 2026-04-26 15:42 | 54.20827 | -165.75589 | 35294 ft | 413 kts | 232° |
| 2026-04-26 15:43 | 54.17717 | -165.83828 | 35296 ft | 413 kts | 232° |
| 2026-04-26 15:44 | 54.13053 | -165.96133 | 35268 ft | 411 kts | 232° |
| 2026-04-26 15:44 | 54.08375 | -166.08411 | 35259 ft | 412 kts | 232° |
| 2026-04-26 15:45 | 54.03687 | -166.20659 | 35270 ft | 412 kts | 232° |
| 2026-04-26 15:46 | 53.98984 | -166.32884 | 35254 ft | 411 kts | 232° |
| 2026-04-26 15:46 | 53.96378 | -166.39638 | 35261 ft | 411 kts | 232° |
| 2026-04-26 15:47 | 53.91216 | -166.53293 | 35245 ft | 415 kts | 238° |
| 2026-04-26 15:48 | 53.89239 | -166.62580 | 35262 ft | 424 kts | 250° |
| 2026-04-26 15:48 | 53.87803 | -166.72271 | 35249 ft | 424 kts | 250° |
| 2026-04-26 15:49 | 53.86360 | -166.81952 | 35283 ft | 424 kts | 249° |
| 2026-04-26 15:49 | 53.84885 | -166.91648 | 35228 ft | 426 kts | 249° |
| 2026-04-26 15:50 | 53.83401 | -167.01287 | 35204 ft | 426 kts | 249° |
| 2026-04-26 15:50 | 53.81895 | -167.10997 | 35206 ft | 427 kts | 249° |
| 2026-04-26 15:51 | 53.80378 | -167.20712 | 35176 ft | 427 kts | 249° |
| 2026-04-26 15:51 | 53.78855 | -167.30416 | 35182 ft | 427 kts | 249° |
| 2026-04-26 15:52 | 53.77326 | -167.40103 | 35204 ft | 427 kts | 249° |
| 2026-04-26 15:52 | 53.75785 | -167.49802 | 35174 ft | 427 kts | 249° |
| 2026-04-26 15:53 | 53.74235 | -167.59502 | 35165 ft | 428 kts | 249° |
| 2026-04-26 15:53 | 53.72677 | -167.69201 | 35143 ft | 428 kts | 249° |
| 2026-04-26 15:54 | 53.71112 | -167.78885 | 35151 ft | 428 kts | 249° |
| 2026-04-26 15:54 | 53.69537 | -167.88572 | 35124 ft | 428 kts | 249° |
| 2026-04-26 15:55 | 53.67955 | -167.98251 | 35166 ft | 428 kts | 249° |
| 2026-04-26 15:55 | 53.66362 | -168.07939 | 35111 ft | 429 kts | 249° |
| 2026-04-26 15:56 | 53.64761 | -168.17628 | 35106 ft | 429 kts | 249° |
| 2026-04-26 15:56 | 53.63153 | -168.27297 | 35101 ft | 429 kts | 249° |
| 2026-04-26 15:57 | 53.61538 | -168.36958 | 35075 ft | 428 kts | 249° |
| 2026-04-26 15:57 | 53.59918 | -168.46597 | 35076 ft | 428 kts | 249° |
| 2026-04-26 15:58 | 53.58290 | -168.56228 | 35093 ft | 428 kts | 248° |
| 2026-04-26 15:58 | 53.56666 | -168.65780 | 35065 ft | 427 kts | 248° |
| 2026-04-26 15:59 | 53.55026 | -168.75376 | 35064 ft | 426 kts | 248° |
| 2026-04-26 15:59 | 53.53382 | -168.84946 | 35038 ft | 425 kts | 248° |
| 2026-04-26 16:00 | 53.51735 | -168.94480 | 35051 ft | 425 kts | 248° |
| 2026-04-26 16:00 | 53.50083 | -169.03988 | 35026 ft | 423 kts | 248° |
| 2026-04-26 16:01 | 53.48427 | -169.13471 | 35024 ft | 424 kts | 248° |
| 2026-04-26 16:01 | 53.46752 | -169.23000 | 35006 ft | 427 kts | 248° |
| 2026-04-26 16:02 | 53.45063 | -169.32566 | 35011 ft | 429 kts | 248° |
| 2026-04-26 16:02 | 53.43360 | -169.42165 | 35009 ft | 430 kts | 248° |
| 2026-04-26 16:03 | 53.41649 | -169.51763 | 35009 ft | 430 kts | 248° |
| 2026-04-26 16:03 | 53.39931 | -169.61348 | 35010 ft | 428 kts | 248° |
| 2026-04-26 16:04 | 53.38234 | -169.70780 | 34995 ft | 421 kts | 248° |
| 2026-04-26 16:04 | 53.36541 | -169.80125 | 34989 ft | 417 kts | 248° |
| 2026-04-26 16:05 | 53.34861 | -169.89351 | 34964 ft | 413 kts | 248° |
| 2026-04-26 16:05 | 53.33186 | -169.98499 | 34972 ft | 411 kts | 248° |
| 2026-04-26 16:06 | 53.31501 | -170.07641 | 34982 ft | 413 kts | 248° |
| 2026-04-26 16:06 | 53.29797 | -170.16850 | 34960 ft | 416 kts | 248° |
| 2026-04-26 16:07 | 53.28076 | -170.26109 | 34981 ft | 419 kts | 248° |
| 2026-04-26 16:07 | 53.26346 | -170.35384 | 34933 ft | 417 kts | 248° |
| 2026-04-26 16:08 | 53.24645 | -170.44472 | 34947 ft | 409 kts | 248° |
| 2026-04-26 16:08 | 53.22940 | -170.53515 | 34960 ft | 408 kts | 248° |
| 2026-04-26 16:09 | 53.21222 | -170.62569 | 34935 ft | 412 kts | 247° |
| 2026-04-26 16:09 | 53.19474 | -170.71739 | 34932 ft | 417 kts | 248° |
| 2026-04-26 16:10 | 53.17706 | -170.80977 | 34946 ft | 419 kts | 248° |
| 2026-04-26 16:10 | 53.15935 | -170.90205 | 34924 ft | 415 kts | 247° |
| 2026-04-26 16:11 | 53.14175 | -170.99330 | 34921 ft | 412 kts | 248° |
| 2026-04-26 16:11 | 53.12421 | -171.08374 | 34903 ft | 409 kts | 248° |
| 2026-04-26 16:12 | 53.10665 | -171.17375 | 34919 ft | 409 kts | 247° |
| 2026-04-26 16:12 | 53.07986 | -171.31017 | 34905 ft | 417 kts | 247° |
| 2026-04-26 16:13 | 53.06176 | -171.40191 | 34913 ft | 418 kts | 247° |
| 2026-04-26 16:13 | 53.04374 | -171.49299 | 34894 ft | 413 kts | 246° |
| 2026-04-26 16:14 | 53.02577 | -171.58325 | 34898 ft | 410 kts | 246° |
| 2026-04-26 16:15 | 52.99878 | -171.71797 | 34885 ft | 412 kts | 247° |
| 2026-04-26 16:15 | 52.98043 | -171.80888 | 34884 ft | 418 kts | 247° |
| 2026-04-26 16:16 | 52.95260 | -171.94630 | 34895 ft | 416 kts | 247° |
| 2026-04-26 16:16 | 52.93424 | -172.03653 | 34890 ft | 411 kts | 246° |
| 2026-04-26 16:17 | 52.91587 | -172.12622 | 34877 ft | 412 kts | 246° |
| 2026-04-26 16:17 | 52.89746 | -172.21570 | 34896 ft | 414 kts | 246° |
| 2026-04-26 16:18 | 52.86939 | -172.35136 | 34870 ft | 416 kts | 247° |
| 2026-04-26 16:19 | 52.84112 | -172.48718 | 34893 ft | 415 kts | 247° |
| 2026-04-26 16:20 | 52.81276 | -172.62246 | 34866 ft | 415 kts | 247° |
| 2026-04-26 16:20 | 52.78431 | -172.75725 | 34879 ft | 414 kts | 247° |
| 2026-04-26 16:21 | 52.76849 | -172.83186 | 34884 ft | 413 kts | 246° |
| 2026-04-26 16:21 | 52.74943 | -172.92132 | 34885 ft | 413 kts | 246° |
| 2026-04-26 16:22 | 52.73032 | -173.01065 | 34895 ft | 413 kts | 247° |
| 2026-04-26 16:22 | 52.71111 | -173.10002 | 34878 ft | 414 kts | 247° |
| 2026-04-26 16:23 | 52.69171 | -173.18989 | 34882 ft | 418 kts | 247° |
| 2026-04-26 16:23 | 52.67210 | -173.28032 | 34876 ft | 420 kts | 247° |
| 2026-04-26 16:24 | 52.65244 | -173.37071 | 34761 ft | 417 kts | 247° |
| 2026-04-26 16:24 | 52.64261 | -173.41571 | 34278 ft | 416 kts | 246° |
| 2026-04-26 16:24 | 52.63281 | -173.46051 | 33781 ft | 415 kts | 247° |
| 2026-04-26 16:25 | 52.62305 | -173.50502 | 33420 ft | 412 kts | 247° |
| 2026-04-26 16:25 | 52.61333 | -173.54920 | 32972 ft | 410 kts | 248° |
| 2026-04-26 16:25 | 52.60362 | -173.59328 | 32499 ft | 408 kts | 247° |
| 2026-04-26 16:25 | 52.59398 | -173.63696 | 32073 ft | 405 kts | 248° |
| 2026-04-26 16:26 | 52.58440 | -173.68026 | 31666 ft | 401 kts | 247° |
| 2026-04-26 16:26 | 52.57492 | -173.72304 | 31246 ft | 397 kts | 248° |
| 2026-04-26 16:26 | 52.56549 | -173.76547 | 30854 ft | 393 kts | 248° |
| 2026-04-26 16:26 | 52.55616 | -173.80740 | 30440 ft | 389 kts | 248° |
| 2026-04-26 16:27 | 52.54702 | -173.84836 | 30067 ft | 385 kts | 248° |
| 2026-04-26 16:27 | 52.53783 | -173.88948 | 29668 ft | 382 kts | 248° |
| 2026-04-26 16:27 | 52.52871 | -173.93019 | 29301 ft | 378 kts | 248° |
| 2026-04-26 16:27 | 52.51968 | -173.97045 | 28998 ft | 373 kts | 248° |
| 2026-04-26 16:28 | 52.51074 | -174.01021 | 28551 ft | 369 kts | 248° |
| 2026-04-26 16:28 | 52.50190 | -174.04945 | 28157 ft | 365 kts | 249° |
| 2026-04-26 16:28 | 52.49313 | -174.08828 | 27774 ft | 360 kts | 248° |
| 2026-04-26 16:28 | 52.48450 | -174.12647 | 27391 ft | 355 kts | 249° |
| 2026-04-26 16:29 | 52.47592 | -174.16431 | 27007 ft | 351 kts | 249° |
| 2026-04-26 16:29 | 52.46749 | -174.20148 | 26667 ft | 346 kts | 249° |
| 2026-04-26 16:29 | 52.45914 | -174.23822 | 26273 ft | 342 kts | 249° |
| 2026-04-26 16:29 | 52.45087 | -174.27450 | 25944 ft | 337 kts | 249° |
| 2026-04-26 16:30 | 52.44272 | -174.31026 | 25556 ft | 334 kts | 249° |
| 2026-04-26 16:30 | 52.43462 | -174.34570 | 25227 ft | 330 kts | 249° |
| 2026-04-26 16:30 | 52.42662 | -174.38065 | 24844 ft | 326 kts | 249° |
| 2026-04-26 16:30 | 52.41867 | -174.41532 | 24471 ft | 323 kts | 249° |
| 2026-04-26 16:31 | 52.41082 | -174.44954 | 24152 ft | 319 kts | 249° |
| 2026-04-26 16:31 | 52.40304 | -174.48337 | 23793 ft | 317 kts | 249° |
| 2026-04-26 16:31 | 52.39529 | -174.51699 | 23415 ft | 314 kts | 250° |
| 2026-04-26 16:31 | 52.38763 | -174.55019 | 23103 ft | 310 kts | 250° |
| 2026-04-26 16:32 | 52.38003 | -174.58309 | 22762 ft | 308 kts | 250° |
| 2026-04-26 16:32 | 52.37502 | -174.60475 | 22545 ft | 306 kts | 250° |
| 2026-04-26 16:32 | 52.36498 | -174.64809 | 22043 ft | 303 kts | 250° |
| 2026-04-26 16:32 | 52.35754 | -174.68016 | 21704 ft | 299 kts | 250° |
| 2026-04-26 16:33 | 52.35022 | -174.71165 | 21409 ft | 295 kts | 250° |
| 2026-04-26 16:33 | 52.34296 | -174.74281 | 21076 ft | 292 kts | 250° |
| 2026-04-26 16:33 | 52.33579 | -174.77360 | 20768 ft | 288 kts | 250° |
| 2026-04-26 16:33 | 52.32869 | -174.80401 | 20452 ft | 285 kts | 250° |
| 2026-04-26 16:34 | 52.32165 | -174.83412 | 20132 ft | 282 kts | 250° |
| 2026-04-26 16:34 | 52.31468 | -174.86390 | 19829 ft | 279 kts | 250° |
| 2026-04-26 16:34 | 52.30776 | -174.89339 | 19521 ft | 276 kts | 250° |
| 2026-04-26 16:34 | 52.30090 | -174.92263 | 19201 ft | 274 kts | 250° |
| 2026-04-26 16:35 | 52.29419 | -174.95118 | 18915 ft | 272 kts | 250° |
| 2026-04-26 16:35 | 52.28745 | -174.97982 | 18614 ft | 269 kts | 250° |
| 2026-04-26 16:35 | 52.28075 | -175.00826 | 18309 ft | 268 kts | 250° |
| 2026-04-26 16:35 | 52.27404 | -175.03670 | 18040 ft | 269 kts | 250° |
| 2026-04-26 16:36 | 52.26730 | -175.06522 | 17747 ft | 270 kts | 252° |
| 2026-04-26 16:36 | 52.26047 | -175.09417 | 17426 ft | 277 kts | 252° |
| 2026-04-26 16:36 | 52.25345 | -175.12382 | 17094 ft | 282 kts | 253° |
| 2026-04-26 16:36 | 52.24639 | -175.15358 | 16763 ft | 280 kts | 252° |
| 2026-04-26 16:37 | 52.23938 | -175.18307 | 16480 ft | 278 kts | 252° |
| 2026-04-26 16:37 | 52.23242 | -175.21230 | 16218 ft | 275 kts | 252° |
| 2026-04-26 16:37 | 52.22552 | -175.24129 | 15934 ft | 273 kts | 252° |
| 2026-04-26 16:37 | 52.21866 | -175.27011 | 15658 ft | 273 kts | 252° |
| 2026-04-26 16:38 | 52.21178 | -175.29887 | 15408 ft | 272 kts | 252° |
| 2026-04-26 16:38 | 52.20493 | -175.32748 | 15131 ft | 270 kts | 252° |
| 2026-04-26 16:38 | 52.19809 | -175.35606 | 14864 ft | 271 kts | 252° |
| 2026-04-26 16:38 | 52.19125 | -175.38459 | 14603 ft | 270 kts | 251° |
| 2026-04-26 16:39 | 52.18442 | -175.41309 | 14335 ft | 270 kts | 251° |
| 2026-04-26 16:39 | 52.17757 | -175.44160 | 14077 ft | 270 kts | 251° |
| 2026-04-26 16:39 | 52.17072 | -175.47010 | 13833 ft | 269 kts | 251° |
| 2026-04-26 16:39 | 52.16394 | -175.49825 | 13636 ft | 263 kts | 251° |
| 2026-04-26 16:40 | 52.15736 | -175.52547 | 13654 ft | 254 kts | 251° |
| 2026-04-26 16:40 | 52.15090 | -175.55224 | 13335 ft | 255 kts | 251° |
| 2026-04-26 16:40 | 52.14431 | -175.57945 | 12875 ft | 261 kts | 251° |
| 2026-04-26 16:40 | 52.13762 | -175.60704 | 12430 ft | 263 kts | 251° |
| 2026-04-26 16:41 | 52.13091 | -175.63464 | 12074 ft | 262 kts | 251° |
| 2026-04-26 16:41 | 52.12422 | -175.66213 | 11729 ft | 261 kts | 251° |
| 2026-04-26 16:41 | 52.11755 | -175.68949 | 11395 ft | 260 kts | 251° |
| 2026-04-26 16:41 | 52.11091 | -175.71675 | 11074 ft | 258 kts | 252° |
| 2026-04-26 16:42 | 52.10430 | -175.74384 | 10774 ft | 257 kts | 252° |
| 2026-04-26 16:42 | 52.09773 | -175.77073 | 10456 ft | 255 kts | 252° |
| 2026-04-26 16:42 | 52.09127 | -175.79712 | 10158 ft | 254 kts | 252° |
| 2026-04-26 16:42 | 52.08477 | -175.82363 | 10061 ft | 245 kts | 252° |
| 2026-04-26 16:43 | 52.07856 | -175.84893 | 9938 ft | 237 kts | 252° |
| 2026-04-26 16:43 | 52.07251 | -175.87358 | 9709 ft | 234 kts | 252° |
| 2026-04-26 16:43 | 52.06650 | -175.89804 | 9473 ft | 232 kts | 252° |
| 2026-04-26 16:43 | 52.06062 | -175.92199 | 9243 ft | 230 kts | 252° |
| 2026-04-26 16:44 | 52.05462 | -175.94639 | 8984 ft | 229 kts | 253° |
| 2026-04-26 16:44 | 52.04875 | -175.97024 | 8734 ft | 227 kts | 253° |
| 2026-04-26 16:44 | 52.04294 | -175.99381 | 8515 ft | 224 kts | 253° |
| 2026-04-26 16:44 | 52.03719 | -176.01713 | 8294 ft | 220 kts | 253° |
| 2026-04-26 16:45 | 52.03159 | -176.03975 | 8083 ft | 217 kts | 253° |
| 2026-04-26 16:45 | 52.02596 | -176.06246 | 7845 ft | 217 kts | 253° |
| 2026-04-26 16:45 | 52.02038 | -176.08499 | 7596 ft | 214 kts | 253° |
| 2026-04-26 16:45 | 52.01476 | -176.10762 | 7485 ft | 211 kts | 254° |
| 2026-04-26 16:46 | 52.00931 | -176.12960 | 7288 ft | 210 kts | 254° |
| 2026-04-26 16:46 | 52.00384 | -176.15167 | 7008 ft | 211 kts | 254° |
| 2026-04-26 16:46 | 51.99838 | -176.17363 | 6743 ft | 210 kts | 254° |
| 2026-04-26 16:46 | 51.99299 | -176.19523 | 6503 ft | 209 kts | 254° |
| 2026-04-26 16:47 | 51.98754 | -176.21705 | 6395 ft | 208 kts | 254° |
| 2026-04-26 16:47 | 51.98213 | -176.23874 | 6062 ft | 211 kts | 253° |
| 2026-04-26 16:47 | 51.97715 | -176.26115 | 5753 ft | 209 kts | 264° |
| 2026-04-26 16:47 | 51.97767 | -176.28405 | 5459 ft | 200 kts | 279° |
| 2026-04-26 16:48 | 51.98206 | -176.30508 | 5185 ft | 194 kts | 291° |
| 2026-04-26 16:48 | 51.98374 | -176.32536 | 4937 ft | 182 kts | 256° |
| 2026-04-26 16:48 | 51.97938 | -176.34399 | 4673 ft | 170 kts | 262° |
| 2026-04-26 16:48 | 51.97634 | -176.36198 | 4416 ft | 163 kts | 257° |
| 2026-04-26 16:49 | 51.97220 | -176.37858 | 4165 ft | 156 kts | 254° |
| 2026-04-26 16:49 | 51.96788 | -176.39417 | 3934 ft | 146 kts | 256° |
| 2026-04-26 16:49 | 51.96406 | -176.40895 | 3703 ft | 139 kts | 254° |
| 2026-04-26 16:49 | 51.95995 | -176.42262 | 3479 ft | 130 kts | 252° |
| 2026-04-26 16:50 | 51.95591 | -176.43485 | 3302 ft | 118 kts | 252° |
| 2026-04-26 16:50 | 51.95189 | -176.44670 | 3091 ft | 120 kts | 251° |
| 2026-04-26 16:50 | 51.94787 | -176.45831 | 2889 ft | 116 kts | 251° |
| 2026-04-26 16:50 | 51.94396 | -176.46952 | 2701 ft | 113 kts | 251° |
| 2026-04-26 16:51 | 51.94005 | -176.48075 | 2521 ft | 115 kts | 251° |
| 2026-04-26 16:51 | 51.93613 | -176.49196 | 2334 ft | 113 kts | 250° |
| 2026-04-26 16:51 | 51.93222 | -176.50315 | 2150 ft | 115 kts | 250° |
| 2026-04-26 16:51 | 51.92825 | -176.51452 | 1956 ft | 116 kts | 249° |
| 2026-04-26 16:52 | 51.92431 | -176.52577 | 1771 ft | 114 kts | 248° |
| 2026-04-26 16:52 | 51.92172 | -176.53318 | 1644 ft | 114 kts | 248° |
| 2026-04-26 16:52 | 51.91648 | -176.54818 | 1392 ft | 115 kts | 247° |
| 2026-04-26 16:52 | 51.91256 | -176.55937 | 1195 ft | 113 kts | 248° |
| 2026-04-26 16:53 | 51.90864 | -176.57067 | 1007 ft | 118 kts | 246° |
| 2026-04-26 16:53 | 51.90457 | -176.58234 | 810 ft | 120 kts | 246° |
| 2026-04-26 16:53 | 51.90043 | -176.59416 | 614 ft | 120 kts | 245° |
| 2026-04-26 16:53 | 51.89623 | -176.60622 | 436 ft | 126 kts | 244° |
| 2026-04-26 16:54 | 51.89205 | -176.61834 | 180 ft | 120 kts | 243° |
| 2026-04-26 16:54 | 51.88808 | -176.62966 | 29 ft | 111 kts | 241° |
| 2026-04-26 16:54 | 51.88514 | -176.63806 | 17 ft | 42 kts | 240° |
| 2026-04-26 16:54 | 51.88436 | -176.64029 | 16 ft | 20 kts | 241° |
| 2026-04-26 16:55 | 51.88367 | -176.64224 | 17 ft | 20 kts | 240° |
| 2026-04-26 16:55 | 51.88322 | -176.64321 | 16 ft | 8 kts | 210° |
| 2026-04-26 16:55 | 51.88270 | -176.64334 | 16 ft | 8 kts | 181° |
| 2026-04-26 16:55 | 51.88217 | -176.64334 | 16 ft | 8 kts | 180° |
| 2026-04-26 16:56 | 51.88052 | -176.64338 | 18 ft | 16 kts | 181° |
| 2026-04-26 16:56 | 51.87940 | -176.64375 | 15 ft | 16 kts | 198° |
| 2026-04-26 16:56 | 51.87835 | -176.64431 | 16 ft | 16 kts | 197° |
| 2026-04-26 16:57 | 51.87759 | -176.64437 | 8 ft | 8 kts | 128° |
| 2026-04-26 16:57 | 51.87715 | -176.64396 | 16 ft | 8 kts | 184° |
| 2026-04-26 16:57 | 51.87682 | -176.64403 | 15 ft | 0 kts | 191° |